sensor_id;sensor_type;location;lat;lon;timestamp;temperature;humidity
24412;DHT22;12544;46.760;15.942;2023-06-24T00:00:17;16.40;99.90
24412;DHT22;12544;46.760;15.942;2023-06-24T00:02:44;16.30;99.90
24412;DHT22;12544;46.760;15.942;2023-06-24T00:05:10;16.10;99.90
24412;DHT22;12544;46.760;15.942;2023-06-24T00:11:05;15.80;99.90
24412;DHT22;12544;46.760;15.942;2023-06-24T00:13:31;15.80;99.90
24412;DHT22;12544;46.760;15.942;2023-06-24T00:15:56;15.90;99.90
24412;DHT22;12544;46.760;15.942;2023-06-24T00:18:22;15.90;99.90
24412;DHT22;12544;46.760;15.942;2023-06-24T00:20:50;15.90;99.90
24412;DHT22;12544;46.760;15.942;2023-06-24T00:23:17;15.80;99.90
24412;DHT22;12544;46.760;15.942;2023-06-24T00:25:46;15.80;99.90
24412;DHT22;12544;46.760;15.942;2023-06-24T00:28:11;15.80;99.90
24412;DHT22;12544;46.760;15.942;2023-06-24T00:30:37;15.80;99.90
24412;DHT22;12544;46.760;15.942;2023-06-24T00:33:03;15.80;99.90
24412;DHT22;12544;46.760;15.942;2023-06-24T00:35:28;15.70;99.90
24412;DHT22;12544;46.760;15.942;2023-06-24T00:37:54;15.70;99.90
24412;DHT22;12544;46.760;15.942;2023-06-24T00:40:23;15.70;99.90
24412;DHT22;12544;46.760;15.942;2023-06-24T00:42:56;15.70;99.90
24412;DHT22;12544;46.760;15.942;2023-06-24T00:45:23;15.70;99.90
24412;DHT22;12544;46.760;15.942;2023-06-24T00:47:49;15.70;99.90
24412;DHT22;12544;46.760;15.942;2023-06-24T00:50:15;15.80;99.90
24412;DHT22;12544;46.760;15.942;2023-06-24T00:52:41;15.80;99.90
24412;DHT22;12544;46.760;15.942;2023-06-24T00:55:11;15.80;99.90
24412;DHT22;12544;46.760;15.942;2023-06-24T00:57:39;15.80;99.90
24412;DHT22;12544;46.760;15.942;2023-06-24T01:00:05;15.80;99.90
24412;DHT22;12544;46.760;15.942;2023-06-24T01:02:47;15.80;99.90
24412;DHT22;12544;46.760;15.942;2023-06-24T01:05:12;15.80;99.90
24412;DHT22;12544;46.760;15.942;2023-06-24T01:07:40;15.80;99.90
24412;DHT22;12544;46.760;15.942;2023-06-24T01:10:07;15.90;99.90
24412;DHT22;12544;46.760;15.942;2023-06-24T01:12:35;15.90;99.90
24412;DHT22;12544;46.760;15.942;2023-06-24T01:15:02;15.90;99.90
24412;DHT22;12544;46.760;15.942;2023-06-24T01:29:33;15.90;99.90
24412;DHT22;12544;46.760;15.942;2023-06-24T01:34:41;16.00;99.90
24412;DHT22;12544;46.760;15.942;2023-06-24T01:37:37;16.00;99.90
24412;DHT22;12544;46.760;15.942;2023-06-24T01:40:12;16.10;99.90
24412;DHT22;12544;46.760;15.942;2023-06-24T01:42:43;16.20;99.90
24412;DHT22;12544;46.760;15.942;2023-06-24T01:45:36;16.20;99.90
24412;DHT22;12544;46.760;15.942;2023-06-24T01:48:09;16.20;99.90
24412;DHT22;12544;46.760;15.942;2023-06-24T01:50:37;16.20;99.90
24412;DHT22;12544;46.760;15.942;2023-06-24T01:53:06;16.20;99.90
24412;DHT22;12544;46.760;15.942;2023-06-24T01:55:34;16.20;99.90
24412;DHT22;12544;46.760;15.942;2023-06-24T01:58:03;16.10;99.90
24412;DHT22;12544;46.760;15.942;2023-06-24T02:00:30;16.10;99.90
24412;DHT22;12544;46.760;15.942;2023-06-24T02:02:57;16.20;99.90
24412;DHT22;12544;46.760;15.942;2023-06-24T02:05:24;16.20;99.90
24412;DHT22;12544;46.760;15.942;2023-06-24T02:07:52;16.20;99.90
24412;DHT22;12544;46.760;15.942;2023-06-24T02:10:19;16.20;99.90
24412;DHT22;12544;46.760;15.942;2023-06-24T02:12:47;16.30;99.90
24412;DHT22;12544;46.760;15.942;2023-06-24T02:15:14;16.30;99.90
24412;DHT22;12544;46.760;15.942;2023-06-24T02:17:40;16.30;99.90
24412;DHT22;12544;46.760;15.942;2023-06-24T02:20:09;16.30;99.90
24412;DHT22;12544;46.760;15.942;2023-06-24T02:22:38;16.20;99.90
24412;DHT22;12544;46.760;15.942;2023-06-24T02:25:05;16.20;99.90
24412;DHT22;12544;46.760;15.942;2023-06-24T02:27:32;16.20;99.90
24412;DHT22;12544;46.760;15.942;2023-06-24T02:30:00;16.20;99.90
24412;DHT22;12544;46.760;15.942;2023-06-24T02:32:26;16.20;99.90
24412;DHT22;12544;46.760;15.942;2023-06-24T02:34:51;16.10;99.90
24412;DHT22;12544;46.760;15.942;2023-06-24T02:37:17;16.10;99.90
24412;DHT22;12544;46.760;15.942;2023-06-24T02:39:43;16.10;99.90
24412;DHT22;12544;46.760;15.942;2023-06-24T02:42:12;16.10;99.90
24412;DHT22;12544;46.760;15.942;2023-06-24T02:44:50;16.10;99.90
24412;DHT22;12544;46.760;15.942;2023-06-24T02:47:17;16.00;99.90
24412;DHT22;12544;46.760;15.942;2023-06-24T02:49:44;16.00;99.90
24412;DHT22;12544;46.760;15.942;2023-06-24T02:52:12;16.00;99.90
24412;DHT22;12544;46.760;15.942;2023-06-24T02:54:38;16.00;99.90
24412;DHT22;12544;46.760;15.942;2023-06-24T02:57:05;16.00;99.90
24412;DHT22;12544;46.760;15.942;2023-06-24T02:59:32;16.00;99.90
24412;DHT22;12544;46.760;15.942;2023-06-24T03:01:58;16.10;99.90
24412;DHT22;12544;46.760;15.942;2023-06-24T03:04:24;16.10;99.90
24412;DHT22;12544;46.760;15.942;2023-06-24T03:07:10;16.10;99.90
24412;DHT22;12544;46.760;15.942;2023-06-24T03:09:36;16.10;99.90
24412;DHT22;12544;46.760;15.942;2023-06-24T03:12:02;16.10;99.90
24412;DHT22;12544;46.760;15.942;2023-06-24T03:14:27;16.00;99.90
24412;DHT22;12544;46.760;15.942;2023-06-24T03:16:53;16.00;99.90
24412;DHT22;12544;46.760;15.942;2023-06-24T03:19:19;16.00;99.90
24412;DHT22;12544;46.760;15.942;2023-06-24T03:21:44;16.00;99.90
24412;DHT22;12544;46.760;15.942;2023-06-24T03:24:10;15.90;99.90
24412;DHT22;12544;46.760;15.942;2023-06-24T03:26:37;15.90;99.90
24412;DHT22;12544;46.760;15.942;2023-06-24T03:29:03;15.90;99.90
24412;DHT22;12544;46.760;15.942;2023-06-24T03:31:29;15.90;99.90
24412;DHT22;12544;46.760;15.942;2023-06-24T03:33:55;15.90;99.90
24412;DHT22;12544;46.760;15.942;2023-06-24T03:36:21;15.90;99.90
24412;DHT22;12544;46.760;15.942;2023-06-24T03:38:47;15.90;99.90
24412;DHT22;12544;46.760;15.942;2023-06-24T03:41:13;15.90;99.90
24412;DHT22;12544;46.760;15.942;2023-06-24T03:43:39;15.90;99.90
24412;DHT22;12544;46.760;15.942;2023-06-24T03:46:05;15.90;99.90
24412;DHT22;12544;46.760;15.942;2023-06-24T03:48:30;15.90;99.90
24412;DHT22;12544;46.760;15.942;2023-06-24T03:50:56;15.90;99.90
24412;DHT22;12544;46.760;15.942;2023-06-24T03:53:22;15.80;99.90
24412;DHT22;12544;46.760;15.942;2023-06-24T03:55:47;15.80;99.90
24412;DHT22;12544;46.760;15.942;2023-06-24T03:58:13;15.80;99.90
24412;DHT22;12544;46.760;15.942;2023-06-24T04:00:39;15.90;99.90
24412;DHT22;12544;46.760;15.942;2023-06-24T04:03:07;15.90;99.90
24412;DHT22;12544;46.760;15.942;2023-06-24T04:05:33;15.80;99.90
24412;DHT22;12544;46.760;15.942;2023-06-24T04:07:59;15.80;99.90
24412;DHT22;12544;46.760;15.942;2023-06-24T04:10:25;15.70;99.90
24412;DHT22;12544;46.760;15.942;2023-06-24T04:12:50;15.70;99.90
24412;DHT22;12544;46.760;15.942;2023-06-24T04:15:16;15.60;99.90
24412;DHT22;12544;46.760;15.942;2023-06-24T04:17:42;15.70;99.90
24412;DHT22;12544;46.760;15.942;2023-06-24T04:20:08;15.60;99.90
24412;DHT22;12544;46.760;15.942;2023-06-24T04:22:36;15.60;99.90
24412;DHT22;12544;46.760;15.942;2023-06-24T04:25:03;15.70;99.90
24412;DHT22;12544;46.760;15.942;2023-06-24T04:27:29;15.80;99.90
24412;DHT22;12544;46.760;15.942;2023-06-24T04:29:54;15.80;99.90
24412;DHT22;12544;46.760;15.942;2023-06-24T04:32:20;15.80;99.90
24412;DHT22;12544;46.760;15.942;2023-06-24T04:34:45;15.80;99.90
24412;DHT22;12544;46.760;15.942;2023-06-24T04:37:11;15.80;99.90
24412;DHT22;12544;46.760;15.942;2023-06-24T04:39:37;15.90;99.90
24412;DHT22;12544;46.760;15.942;2023-06-24T04:42:02;15.90;99.90
24412;DHT22;12544;46.760;15.942;2023-06-24T04:44:28;16.00;99.90
24412;DHT22;12544;46.760;15.942;2023-06-24T04:47:19;16.10;99.90
24412;DHT22;12544;46.760;15.942;2023-06-24T04:49:44;16.20;99.90
24412;DHT22;12544;46.760;15.942;2023-06-24T04:52:13;16.30;99.90
24412;DHT22;12544;46.760;15.942;2023-06-24T04:54:39;16.40;99.90
24412;DHT22;12544;46.760;15.942;2023-06-24T04:57:08;16.40;99.90
24412;DHT22;12544;46.760;15.942;2023-06-24T04:59:34;16.40;99.90
24412;DHT22;12544;46.760;15.942;2023-06-24T05:01:59;16.40;99.90
24412;DHT22;12544;46.760;15.942;2023-06-24T05:11:08;16.70;99.90
24412;DHT22;12544;46.760;15.942;2023-06-24T05:13:34;16.80;99.90
24412;DHT22;12544;46.760;15.942;2023-06-24T05:16:00;16.80;99.90
24412;DHT22;12544;46.760;15.942;2023-06-24T05:21:47;17.00;99.90
24412;DHT22;12544;46.760;15.942;2023-06-24T05:24:13;17.10;99.90
24412;DHT22;12544;46.760;15.942;2023-06-24T05:26:39;17.20;99.90
24412;DHT22;12544;46.760;15.942;2023-06-24T05:29:04;17.20;99.90
24412;DHT22;12544;46.760;15.942;2023-06-24T05:31:30;17.20;99.90
24412;DHT22;12544;46.760;15.942;2023-06-24T05:33:55;17.30;99.90
24412;DHT22;12544;46.760;15.942;2023-06-24T05:36:21;17.30;99.90
24412;DHT22;12544;46.760;15.942;2023-06-24T05:38:47;17.30;99.90
24412;DHT22;12544;46.760;15.942;2023-06-24T05:41:14;17.30;99.90
24412;DHT22;12544;46.760;15.942;2023-06-24T05:43:42;17.40;99.90
24412;DHT22;12544;46.760;15.942;2023-06-24T05:46:07;17.50;99.90
24412;DHT22;12544;46.760;15.942;2023-06-24T05:48:33;17.50;99.90
24412;DHT22;12544;46.760;15.942;2023-06-24T05:50:59;17.50;99.90
24412;DHT22;12544;46.760;15.942;2023-06-24T05:53:24;17.60;99.90
24412;DHT22;12544;46.760;15.942;2023-06-24T05:55:50;17.70;99.90
24412;DHT22;12544;46.760;15.942;2023-06-24T05:58:16;17.70;99.90
24412;DHT22;12544;46.760;15.942;2023-06-24T06:00:41;17.80;99.90
24412;DHT22;12544;46.760;15.942;2023-06-24T06:03:07;17.90;99.90
24412;DHT22;12544;46.760;15.942;2023-06-24T06:05:33;17.80;99.90
24412;DHT22;12544;46.760;15.942;2023-06-24T06:07:58;17.80;99.90
24412;DHT22;12544;46.760;15.942;2023-06-24T06:10:24;17.70;99.90
24412;DHT22;12544;46.760;15.942;2023-06-24T06:12:49;17.70;99.90
24412;DHT22;12544;46.760;15.942;2023-06-24T06:15:15;17.80;99.90
24412;DHT22;12544;46.760;15.942;2023-06-24T06:17:41;17.80;99.90
24412;DHT22;12544;46.760;15.942;2023-06-24T06:20:07;17.70;99.90
24412;DHT22;12544;46.760;15.942;2023-06-24T06:22:33;17.80;99.90
24412;DHT22;12544;46.760;15.942;2023-06-24T06:25:04;17.80;99.90
24412;DHT22;12544;46.760;15.942;2023-06-24T06:27:30;17.90;99.90
24412;DHT22;12544;46.760;15.942;2023-06-24T06:29:55;18.00;99.90
24412;DHT22;12544;46.760;15.942;2023-06-24T06:32:21;18.10;99.90
24412;DHT22;12544;46.760;15.942;2023-06-24T06:34:46;18.20;99.90
24412;DHT22;12544;46.760;15.942;2023-06-24T06:37:12;18.30;99.90
24412;DHT22;12544;46.760;15.942;2023-06-24T06:39:38;18.30;99.90
24412;DHT22;12544;46.760;15.942;2023-06-24T06:42:03;18.40;99.90
24412;DHT22;12544;46.760;15.942;2023-06-24T06:44:29;18.50;99.90
24412;DHT22;12544;46.760;15.942;2023-06-24T06:46:55;18.50;99.90
24412;DHT22;12544;46.760;15.942;2023-06-24T06:49:20;18.60;99.90
24412;DHT22;12544;46.760;15.942;2023-06-24T06:51:46;18.80;99.90
24412;DHT22;12544;46.760;15.942;2023-06-24T06:57:33;19.00;99.90
24412;DHT22;12544;46.760;15.942;2023-06-24T06:59:59;19.10;99.90
24412;DHT22;12544;46.760;15.942;2023-06-24T07:02:24;19.20;99.90
24412;DHT22;12544;46.760;15.942;2023-06-24T07:04:50;19.30;99.90
24412;DHT22;12544;46.760;15.942;2023-06-24T07:07:17;19.40;99.90
24412;DHT22;12544;46.760;15.942;2023-06-24T07:13:04;19.40;99.90
24412;DHT22;12544;46.760;15.942;2023-06-24T07:15:30;19.60;99.90
24412;DHT22;12544;46.760;15.942;2023-06-24T07:17:56;19.70;99.90
24412;DHT22;12544;46.760;15.942;2023-06-24T07:20:21;19.80;99.90
24412;DHT22;12544;46.760;15.942;2023-06-24T07:22:47;19.90;99.90
24412;DHT22;12544;46.760;15.942;2023-06-24T07:25:13;19.90;99.90
24412;DHT22;12544;46.760;15.942;2023-06-24T07:27:39;20.00;99.90
24412;DHT22;12544;46.760;15.942;2023-06-24T07:30:05;20.10;99.90
24412;DHT22;12544;46.760;15.942;2023-06-24T07:32:31;20.10;99.90
24412;DHT22;12544;46.760;15.942;2023-06-24T07:38:18;20.20;99.90
24412;DHT22;12544;46.760;15.942;2023-06-24T07:40:44;20.40;99.90
24412;DHT22;12544;46.760;15.942;2023-06-24T07:43:09;20.50;99.90
24412;DHT22;12544;46.760;15.942;2023-06-24T07:45:35;20.60;99.90
24412;DHT22;12544;46.760;15.942;2023-06-24T07:48:01;20.80;99.90
24412;DHT22;12544;46.760;15.942;2023-06-24T07:53:48;20.90;99.90
24412;DHT22;12544;46.760;15.942;2023-06-24T07:56:14;21.00;99.90
24412;DHT22;12544;46.760;15.942;2023-06-24T07:58:39;21.00;99.90
24412;DHT22;12544;46.760;15.942;2023-06-24T08:01:05;21.10;99.90
24412;DHT22;12544;46.760;15.942;2023-06-24T08:03:31;21.20;99.90
24412;DHT22;12544;46.760;15.942;2023-06-24T08:09:18;21.40;99.90
24412;DHT22;12544;46.760;15.942;2023-06-24T08:11:44;21.50;99.90
24412;DHT22;12544;46.760;15.942;2023-06-24T08:14:10;21.70;99.90
24412;DHT22;12544;46.760;15.942;2023-06-24T08:16:36;21.70;99.90
24412;DHT22;12544;46.760;15.942;2023-06-24T08:19:01;21.80;99.90
24412;DHT22;12544;46.760;15.942;2023-06-24T08:24:48;22.10;99.90
24412;DHT22;12544;46.760;15.942;2023-06-24T08:27:14;22.30;99.90
24412;DHT22;12544;46.760;15.942;2023-06-24T08:29:40;22.40;99.90
24412;DHT22;12544;46.760;15.942;2023-06-24T08:32:06;22.40;99.90
24412;DHT22;12544;46.760;15.942;2023-06-24T08:34:32;22.50;99.90
24412;DHT22;12544;46.760;15.942;2023-06-24T08:36:58;22.50;99.90
24412;DHT22;12544;46.760;15.942;2023-06-24T08:39:24;22.50;99.90
24412;DHT22;12544;46.760;15.942;2023-06-24T08:41:50;22.50;99.90
24412;DHT22;12544;46.760;15.942;2023-06-24T08:44:16;22.40;99.90
24412;DHT22;12544;46.760;15.942;2023-06-24T08:46:41;22.40;99.90
24412;DHT22;12544;46.760;15.942;2023-06-24T08:52:02;22.30;99.90
24412;DHT22;12544;46.760;15.942;2023-06-24T08:54:28;22.60;99.90
24412;DHT22;12544;46.760;15.942;2023-06-24T09:00:16;22.80;99.90
24412;DHT22;12544;46.760;15.942;2023-06-24T09:02:42;23.10;99.90
24412;DHT22;12544;46.760;15.942;2023-06-24T09:05:08;23.10;99.90
24412;DHT22;12544;46.760;15.942;2023-06-24T09:07:34;22.90;99.90
24412;DHT22;12544;46.760;15.942;2023-06-24T09:10:00;22.80;99.90
24412;DHT22;12544;46.760;15.942;2023-06-24T09:12:26;22.70;99.90
24412;DHT22;12544;46.760;15.942;2023-06-24T09:14:52;22.50;99.90
24412;DHT22;12544;46.760;15.942;2023-06-24T09:17:18;22.30;99.90
24412;DHT22;12544;46.760;15.942;2023-06-24T09:19:48;22.20;99.90
24412;DHT22;12544;46.760;15.942;2023-06-24T09:22:13;22.20;99.90
24412;DHT22;12544;46.760;15.942;2023-06-24T09:24:44;22.20;99.90
24412;DHT22;12544;46.760;15.942;2023-06-24T09:27:16;22.20;99.90
24412;DHT22;12544;46.760;15.942;2023-06-24T09:29:45;22.30;99.90
24412;DHT22;12544;46.760;15.942;2023-06-24T09:32:12;22.20;99.90
24412;DHT22;12544;46.760;15.942;2023-06-24T09:34:38;22.30;99.90
24412;DHT22;12544;46.760;15.942;2023-06-24T09:37:04;22.40;99.90
24412;DHT22;12544;46.760;15.942;2023-06-24T09:39:36;22.60;99.90
24412;DHT22;12544;46.760;15.942;2023-06-24T09:42:02;22.70;99.90
24412;DHT22;12544;46.760;15.942;2023-06-24T09:44:29;23.00;99.90
24412;DHT22;12544;46.760;15.942;2023-06-24T09:46:56;22.90;99.90
24412;DHT22;12544;46.760;15.942;2023-06-24T09:49:22;23.10;99.90
24412;DHT22;12544;46.760;15.942;2023-06-24T09:51:49;23.20;99.90
24412;DHT22;12544;46.760;15.942;2023-06-24T09:54:16;23.30;99.90
24412;DHT22;12544;46.760;15.942;2023-06-24T09:56:49;23.40;99.90
24412;DHT22;12544;46.760;15.942;2023-06-24T09:59:17;23.40;99.90
24412;DHT22;12544;46.760;15.942;2023-06-24T10:01:46;23.40;99.90
24412;DHT22;12544;46.760;15.942;2023-06-24T10:04:17;23.40;99.90
24412;DHT22;12544;46.760;15.942;2023-06-24T10:06:43;23.50;99.90
24412;DHT22;12544;46.760;15.942;2023-06-24T10:09:09;23.50;99.90
24412;DHT22;12544;46.760;15.942;2023-06-24T10:11:35;23.80;99.90
24412;DHT22;12544;46.760;15.942;2023-06-24T10:14:01;24.20;99.90
24412;DHT22;12544;46.760;15.942;2023-06-24T10:16:27;24.40;99.90
24412;DHT22;12544;46.760;15.942;2023-06-24T10:19:00;24.50;99.90
24412;DHT22;12544;46.760;15.942;2023-06-24T10:21:45;24.40;99.90
24412;DHT22;12544;46.760;15.942;2023-06-24T10:24:12;24.20;99.90
24412;DHT22;12544;46.760;15.942;2023-06-24T10:26:39;24.00;99.90
24412;DHT22;12544;46.760;15.942;2023-06-24T10:39:35;24.80;99.90
24412;DHT22;12544;46.760;15.942;2023-06-24T10:42:25;24.90;99.90
24412;DHT22;12544;46.760;15.942;2023-06-24T10:44:52;25.00;99.90
24412;DHT22;12544;46.760;15.942;2023-06-24T10:47:18;25.00;99.90
24412;DHT22;12544;46.760;15.942;2023-06-24T10:49:44;24.80;99.90
24412;DHT22;12544;46.760;15.942;2023-06-24T10:52:10;24.70;99.90
24412;DHT22;12544;46.760;15.942;2023-06-24T10:54:41;24.70;99.90
24412;DHT22;12544;46.760;15.942;2023-06-24T10:57:07;24.50;99.90
24412;DHT22;12544;46.760;15.942;2023-06-24T11:02:05;24.20;99.90
24412;DHT22;12544;46.760;15.942;2023-06-24T11:04:30;24.00;99.90
24412;DHT22;12544;46.760;15.942;2023-06-24T11:06:58;23.80;99.90
24412;DHT22;12544;46.760;15.942;2023-06-24T11:09:24;23.80;99.90
24412;DHT22;12544;46.760;15.942;2023-06-24T11:11:50;23.70;99.90
24412;DHT22;12544;46.760;15.942;2023-06-24T11:14:16;23.70;99.90
24412;DHT22;12544;46.760;15.942;2023-06-24T11:16:41;23.70;99.90
24412;DHT22;12544;46.760;15.942;2023-06-24T11:19:08;23.80;99.90
24412;DHT22;12544;46.760;15.942;2023-06-24T11:21:34;23.70;99.90
24412;DHT22;12544;46.760;15.942;2023-06-24T11:24:03;23.80;99.90
24412;DHT22;12544;46.760;15.942;2023-06-24T11:26:29;23.60;99.90
24412;DHT22;12544;46.760;15.942;2023-06-24T11:28:55;23.70;99.90
24412;DHT22;12544;46.760;15.942;2023-06-24T11:31:27;23.80;99.90
24412;DHT22;12544;46.760;15.942;2023-06-24T11:33:53;24.00;99.90
24412;DHT22;12544;46.760;15.942;2023-06-24T11:36:19;24.00;99.90
24412;DHT22;12544;46.760;15.942;2023-06-24T11:38:48;23.90;99.90
24412;DHT22;12544;46.760;15.942;2023-06-24T11:41:14;23.80;99.90
24412;DHT22;12544;46.760;15.942;2023-06-24T11:43:45;23.80;99.90
24412;DHT22;12544;46.760;15.942;2023-06-24T11:46:11;23.90;99.90
24412;DHT22;12544;46.760;15.942;2023-06-24T11:48:45;23.90;99.90
24412;DHT22;12544;46.760;15.942;2023-06-24T11:51:14;23.80;99.90
24412;DHT22;12544;46.760;15.942;2023-06-24T11:53:43;23.80;99.90
24412;DHT22;12544;46.760;15.942;2023-06-24T11:56:10;23.80;99.90
24412;DHT22;12544;46.760;15.942;2023-06-24T11:58:35;23.70;99.90
24412;DHT22;12544;46.760;15.942;2023-06-24T12:01:02;23.70;99.90
24412;DHT22;12544;46.760;15.942;2023-06-24T12:03:30;23.50;99.90
24412;DHT22;12544;46.760;15.942;2023-06-24T12:05:58;23.60;99.90
24412;DHT22;12544;46.760;15.942;2023-06-24T12:08:23;23.80;99.90
24412;DHT22;12544;46.760;15.942;2023-06-24T12:10:49;23.90;99.90
24412;DHT22;12544;46.760;15.942;2023-06-24T12:13:15;24.10;99.90
24412;DHT22;12544;46.760;15.942;2023-06-24T12:15:40;24.40;99.90
24412;DHT22;12544;46.760;15.942;2023-06-24T12:18:07;24.80;99.90
24412;DHT22;12544;46.760;15.942;2023-06-24T12:20:33;24.90;99.90
24412;DHT22;12544;46.760;15.942;2023-06-24T12:22:59;25.00;99.90
24412;DHT22;12544;46.760;15.942;2023-06-24T12:25:25;24.70;99.90
24412;DHT22;12544;46.760;15.942;2023-06-24T12:27:51;24.50;99.90
24412;DHT22;12544;46.760;15.942;2023-06-24T12:30:16;24.30;99.90
24412;DHT22;12544;46.760;15.942;2023-06-24T12:32:42;23.90;99.90
24412;DHT22;12544;46.760;15.942;2023-06-24T12:35:09;23.80;99.90
24412;DHT22;12544;46.760;15.942;2023-06-24T12:37:36;23.80;99.90
24412;DHT22;12544;46.760;15.942;2023-06-24T12:40:05;23.60;99.90
24412;DHT22;12544;46.760;15.942;2023-06-24T12:42:30;23.40;99.90
24412;DHT22;12544;46.760;15.942;2023-06-24T12:44:56;23.30;99.90
24412;DHT22;12544;46.760;15.942;2023-06-24T12:47:22;23.30;99.90
24412;DHT22;12544;46.760;15.942;2023-06-24T12:49:49;23.30;99.90
24412;DHT22;12544;46.760;15.942;2023-06-24T12:52:14;23.30;99.90
24412;DHT22;12544;46.760;15.942;2023-06-24T12:54:41;23.40;99.90
24412;DHT22;12544;46.760;15.942;2023-06-24T12:57:07;23.50;99.90
24412;DHT22;12544;46.760;15.942;2023-06-24T12:59:33;23.70;99.90
24412;DHT22;12544;46.760;15.942;2023-06-24T13:01:59;23.80;99.90
24412;DHT22;12544;46.760;15.942;2023-06-24T13:04:24;24.00;99.90
24412;DHT22;12544;46.760;15.942;2023-06-24T13:06:53;23.70;99.90
24412;DHT22;12544;46.760;15.942;2023-06-24T13:09:19;23.70;99.90
24412;DHT22;12544;46.760;15.942;2023-06-24T13:11:45;23.70;99.90
24412;DHT22;12544;46.760;15.942;2023-06-24T13:14:12;23.80;99.90
24412;DHT22;12544;46.760;15.942;2023-06-24T13:16:37;23.50;99.90
24412;DHT22;12544;46.760;15.942;2023-06-24T13:19:03;23.20;99.90
24412;DHT22;12544;46.760;15.942;2023-06-24T13:21:29;23.20;99.90
24412;DHT22;12544;46.760;15.942;2023-06-24T13:23:54;23.30;99.90
24412;DHT22;12544;46.760;15.942;2023-06-24T13:26:20;23.30;99.90
24412;DHT22;12544;46.760;15.942;2023-06-24T13:28:46;23.50;99.90
24412;DHT22;12544;46.760;15.942;2023-06-24T13:31:11;23.50;99.90
24412;DHT22;12544;46.760;15.942;2023-06-24T13:33:37;23.80;99.90
24412;DHT22;12544;46.760;15.942;2023-06-24T13:36:04;24.10;99.90
24412;DHT22;12544;46.760;15.942;2023-06-24T13:38:32;24.60;99.90
24412;DHT22;12544;46.760;15.942;2023-06-24T13:40:57;24.70;99.90
24412;DHT22;12544;46.760;15.942;2023-06-24T13:43:23;24.60;99.90
24412;DHT22;12544;46.760;15.942;2023-06-24T13:45:49;24.50;99.90
24412;DHT22;12544;46.760;15.942;2023-06-24T13:48:14;24.20;99.90
24412;DHT22;12544;46.760;15.942;2023-06-24T13:50:40;24.20;99.90
24412;DHT22;12544;46.760;15.942;2023-06-24T13:53:05;24.00;99.90
24412;DHT22;12544;46.760;15.942;2023-06-24T13:55:31;23.80;99.90
24412;DHT22;12544;46.760;15.942;2023-06-24T13:57:57;23.80;99.90
24412;DHT22;12544;46.760;15.942;2023-06-24T14:00:24;23.70;99.90
24412;DHT22;12544;46.760;15.942;2023-06-24T14:02:50;23.70;99.90
24412;DHT22;12544;46.760;15.942;2023-06-24T14:05:16;23.80;99.90
24412;DHT22;12544;46.760;15.942;2023-06-24T14:07:42;23.80;99.90
24412;DHT22;12544;46.760;15.942;2023-06-24T14:10:08;23.90;99.90
24412;DHT22;12544;46.760;15.942;2023-06-24T14:12:33;23.80;99.90
24412;DHT22;12544;46.760;15.942;2023-06-24T14:14:59;23.90;99.90
24412;DHT22;12544;46.760;15.942;2023-06-24T14:17:25;24.00;99.90
24412;DHT22;12544;46.760;15.942;2023-06-24T14:19:52;24.00;99.90
24412;DHT22;12544;46.760;15.942;2023-06-24T14:22:17;24.00;99.90
24412;DHT22;12544;46.760;15.942;2023-06-24T14:24:43;23.80;99.90
24412;DHT22;12544;46.760;15.942;2023-06-24T14:27:09;23.90;99.90
24412;DHT22;12544;46.760;15.942;2023-06-24T14:29:35;23.80;99.90
24412;DHT22;12544;46.760;15.942;2023-06-24T14:32:00;23.70;99.90
24412;DHT22;12544;46.760;15.942;2023-06-24T14:34:26;23.50;99.90
24412;DHT22;12544;46.760;15.942;2023-06-24T14:36:55;23.70;99.90
24412;DHT22;12544;46.760;15.942;2023-06-24T14:39:21;24.00;99.90
24412;DHT22;12544;46.760;15.942;2023-06-24T14:41:46;24.10;99.90
24412;DHT22;12544;46.760;15.942;2023-06-24T14:44:12;24.00;99.90
24412;DHT22;12544;46.760;15.942;2023-06-24T14:46:37;23.90;99.90
24412;DHT22;12544;46.760;15.942;2023-06-24T14:49:03;23.90;99.90
24412;DHT22;12544;46.760;15.942;2023-06-24T14:51:29;23.90;99.90
24412;DHT22;12544;46.760;15.942;2023-06-24T14:53:54;23.90;99.90
24412;DHT22;12544;46.760;15.942;2023-06-24T14:56:20;23.80;99.90
24412;DHT22;12544;46.760;15.942;2023-06-24T14:58:45;23.80;99.90
24412;DHT22;12544;46.760;15.942;2023-06-24T15:01:11;23.70;99.90
24412;DHT22;12544;46.760;15.942;2023-06-24T15:03:37;23.70;99.90
24412;DHT22;12544;46.760;15.942;2023-06-24T15:06:02;23.70;99.90
24412;DHT22;12544;46.760;15.942;2023-06-24T15:08:28;23.50;99.90
24412;DHT22;12544;46.760;15.942;2023-06-24T15:10:54;23.50;99.90
24412;DHT22;12544;46.760;15.942;2023-06-24T15:13:20;23.40;99.90
24412;DHT22;12544;46.760;15.942;2023-06-24T15:15:45;23.40;99.90
24412;DHT22;12544;46.760;15.942;2023-06-24T15:18:11;23.30;99.90
24412;DHT22;12544;46.760;15.942;2023-06-24T15:20:37;23.40;99.90
24412;DHT22;12544;46.760;15.942;2023-06-24T15:23:02;23.40;99.90
24412;DHT22;12544;46.760;15.942;2023-06-24T15:25:29;23.50;99.90
24412;DHT22;12544;46.760;15.942;2023-06-24T15:27:54;23.50;99.90
24412;DHT22;12544;46.760;15.942;2023-06-24T15:30:20;23.40;99.90
24412;DHT22;12544;46.760;15.942;2023-06-24T15:32:46;23.20;99.90
24412;DHT22;12544;46.760;15.942;2023-06-24T15:35:12;23.20;99.90
24412;DHT22;12544;46.760;15.942;2023-06-24T15:37:38;23.10;99.90
24412;DHT22;12544;46.760;15.942;2023-06-24T15:40:04;23.20;99.90
24412;DHT22;12544;46.760;15.942;2023-06-24T15:42:29;23.30;98.90
24412;DHT22;12544;46.760;15.942;2023-06-24T15:44:55;23.00;99.90
24412;DHT22;12544;46.760;15.942;2023-06-24T15:47:21;23.00;99.90
24412;DHT22;12544;46.760;15.942;2023-06-24T15:49:47;23.00;99.90
24412;DHT22;12544;46.760;15.942;2023-06-24T15:52:12;22.70;99.90
24412;DHT22;12544;46.760;15.942;2023-06-24T15:54:38;22.70;99.90
24412;DHT22;12544;46.760;15.942;2023-06-24T15:57:04;22.50;99.90
24412;DHT22;12544;46.760;15.942;2023-06-24T15:59:30;22.40;99.90
24412;DHT22;12544;46.760;15.942;2023-06-24T16:01:55;22.40;99.90
24412;DHT22;12544;46.760;15.942;2023-06-24T16:04:21;22.40;99.90
24412;DHT22;12544;46.760;15.942;2023-06-24T16:06:47;22.30;99.80
24412;DHT22;12544;46.760;15.942;2023-06-24T16:09:12;22.10;99.90
24412;DHT22;12544;46.760;15.942;2023-06-24T16:11:38;22.00;99.90
24412;DHT22;12544;46.760;15.942;2023-06-24T16:14:04;21.90;99.90
24412;DHT22;12544;46.760;15.942;2023-06-24T16:16:29;21.90;99.90
24412;DHT22;12544;46.760;15.942;2023-06-24T16:18:56;22.00;99.90